Time,TemperatureF,DewpointF,PressureIn,WindDirection,WindDirectionDegrees,WindSpeedMPH,WindSpeedGustMPH,Humidity,HourlyPrecipIn,Conditions,Clouds,dailyrainin,SoftwareType,DateUTC
2013-10-29 00:07:00,55.3,42.0,30.21,East,99,2.0,6.0,61,0.00,,,0.00,weatherlink.com 1.10,2013-10-29 05:07:00,
2013-10-29 00:22:00,55.5,42.0,30.21,East,92,3.0,7.0,61,0.00,,,0.00,weatherlink.com 1.10,2013-10-29 05:22:00,
2013-10-29 00:37:00,55.7,42.0,30.22,East,96,2.0,6.0,60,0.00,,,0.00,weatherlink.com 1.10,2013-10-29 05:37:00,
2013-10-29 00:52:00,55.5,42.0,30.22,ESE,103,1.0,5.0,60,0.00,,,0.00,weatherlink.com 1.10,2013-10-29 05:52:00,
2013-10-29 01:07:00,55.1,42.0,30.22,East,92,3.0,6.0,61,0.00,,,0.00,weatherlink.com 1.10,2013-10-29 06:07:00,
2013-10-29 01:22:00,54.5,42.0,30.23,SE,124,2.0,4.0,62,0.00,,,0.00,weatherlink.com 1.10,2013-10-29 06:22:00,
2013-10-29 01:37:00,54.4,41.0,30.22,East,90,2.0,5.0,61,0.00,,,0.00,weatherlink.com 1.10,2013-10-29 06:37:00,
2013-10-29 01:52:00,54.1,41.0,30.22,SSE,148,2.0,5.0,62,0.00,,,0.00,weatherlink.com 1.10,2013-10-29 06:52:00,
2013-10-29 02:07:00,53.5,41.0,30.22,SE,132,0.0,4.0,64,0.00,,,0.00,weatherlink.com 1.10,2013-10-29 07:07:00,
2013-10-29 02:22:00,53.0,41.0,30.21,East,82,1.0,6.0,65,0.00,,,0.00,weatherlink.com 1.10,2013-10-29 07:22:00,
2013-10-29 02:37:00,52.3,41.0,30.21,ESE,105,1.0,4.0,66,0.00,,,0.00,weatherlink.com 1.10,2013-10-29 07:37:00,
2013-10-29 02:52:00,51.7,41.0,30.20,East,85,2.0,4.0,66,0.00,,,0.00,weatherlink.com 1.10,2013-10-29 07:52:00,
2013-10-29 03:07:00,50.8,41.0,30.21,East,93,0.0,2.0,68,0.00,,,0.00,weatherlink.com 1.10,2013-10-29 08:07:00,
2013-10-29 03:22:00,50.2,40.0,30.20,East,98,1.0,3.0,69,0.00,,,0.00,weatherlink.com 1.10,2013-10-29 08:22:00,
2013-10-29 03:37:00,51.4,41.0,30.20,ENE,72,2.0,6.0,67,0.00,,,0.00,weatherlink.com 1.10,2013-10-29 08:37:00,
2013-10-29 03:52:00,51.9,40.0,30.20,ESE,113,4.0,7.0,65,0.00,,,0.00,weatherlink.com 1.10,2013-10-29 08:52:00,
2013-10-29 04:07:00,51.9,40.0,30.20,ESE,111,4.0,4.0,64,0.00,,,0.00,weatherlink.com 1.10,2013-10-29 09:07:00,
2013-10-29 04:22:00,51.2,40.0,30.20,SE,139,1.0,4.0,66,0.00,,,0.00,weatherlink.com 1.10,2013-10-29 09:22:00,
2013-10-29 04:37:00,51.4,40.0,30.21,East,79,2.0,4.0,65,0.00,,,0.00,weatherlink.com 1.10,2013-10-29 09:37:00,
2013-10-29 04:53:00,51.5,40.0,30.21,East,95,1.0,5.0,65,0.00,,,0.00,weatherlink.com 1.10,2013-10-29 09:53:00,
2013-10-29 05:08:00,52.0,40.0,30.21,East,96,4.0,9.0,63,0.00,,,0.00,weatherlink.com 1.10,2013-10-29 10:08:00,
2013-10-29 05:23:00,51.9,40.0,30.20,East,84,1.0,7.0,63,0.00,,,0.00,weatherlink.com 1.10,2013-10-29 10:23:00,
2013-10-29 05:38:00,51.9,40.0,30.20,SSE,158,1.0,6.0,63,0.00,,,0.00,weatherlink.com 1.10,2013-10-29 10:38:00,
2013-10-29 05:53:00,51.8,39.0,30.21,East,97,4.0,5.0,62,0.00,,,0.00,weatherlink.com 1.10,2013-10-29 10:53:00,
2013-10-29 06:08:00,51.9,39.0,30.20,SE,134,3.0,7.0,62,0.00,,,0.00,weatherlink.com 1.10,2013-10-29 11:08:00,
2013-10-29 06:23:00,51.9,39.0,30.19,East,101,2.0,8.0,62,0.00,,,0.00,weatherlink.com 1.10,2013-10-29 11:23:00,
2013-10-29 06:38:00,51.7,39.0,30.19,East,98,3.0,5.0,62,0.00,,,0.00,weatherlink.com 1.10,2013-10-29 11:38:00,
2013-10-29 06:53:00,51.7,39.0,30.19,ENE,70,4.0,6.0,62,0.00,,,0.00,weatherlink.com 1.10,2013-10-29 11:53:00,
2013-10-29 07:08:00,51.7,39.0,30.18,SE,129,3.0,7.0,62,0.00,,,0.00,weatherlink.com 1.10,2013-10-29 12:08:00,
2013-10-29 07:23:00,51.7,39.0,30.20,East,93,4.0,7.0,62,0.00,,,0.00,weatherlink.com 1.10,2013-10-29 12:23:00,
2013-10-29 07:38:00,51.9,39.0,30.20,East,79,5.0,8.0,62,0.00,,,0.00,weatherlink.com 1.10,2013-10-29 12:38:00,
2013-10-29 07:53:00,51.9,40.0,30.19,SSE,166,4.0,8.0,63,0.00,,,0.00,weatherlink.com 1.10,2013-10-29 12:53:00,
2013-10-29 08:08:00,51.6,40.0,30.19,ESE,108,3.0,6.0,64,0.00,,,0.00,weatherlink.com 1.10,2013-10-29 13:08:00,
2013-10-29 08:23:00,51.6,40.0,30.19,East,99,5.0,6.0,65,0.00,,,0.00,weatherlink.com 1.10,2013-10-29 13:23:00,
2013-10-29 08:38:00,51.5,40.0,30.19,ESE,117,3.0,5.0,66,0.00,,,0.00,weatherlink.com 1.10,2013-10-29 13:38:00,
2013-10-29 08:53:00,51.7,41.0,30.19,East,92,4.0,6.0,67,0.00,,,0.00,weatherlink.com 1.10,2013-10-29 13:53:00,
2013-10-29 09:08:00,52.1,41.0,30.20,ESE,122,3.0,5.0,67,0.00,,,0.00,weatherlink.com 1.10,2013-10-29 14:08:00,
2013-10-29 09:23:00,52.2,41.0,30.21,SSW,203,0.0,4.0,67,0.00,,,0.00,weatherlink.com 1.10,2013-10-29 14:23:00,
2013-10-29 09:38:00,52.2,42.0,30.21,East,89,2.0,5.0,68,0.00,,,0.00,weatherlink.com 1.10,2013-10-29 14:38:00,
2013-10-29 09:53:00,52.1,42.0,30.21,East,87,3.0,6.0,68,0.00,,,0.00,weatherlink.com 1.10,2013-10-29 14:53:00,
2013-10-29 10:08:00,51.7,43.0,30.22,SE,128,3.0,5.0,72,0.00,,,0.00,weatherlink.com 1.10,2013-10-29 15:08:00,
2013-10-29 10:23:00,50.3,44.0,30.21,WSW,242,0.0,2.0,78,0.01,,,0.01,weatherlink.com 1.10,2013-10-29 15:23:00,
2013-10-29 10:38:00,49.6,45.0,30.22,SE,128,0.0,1.0,83,0.03,,,0.03,weatherlink.com 1.10,2013-10-29 15:38:00,
2013-10-29 10:53:00,48.7,45.0,30.21,ESE,116,2.0,5.0,86,0.06,,,0.06,weatherlink.com 1.10,2013-10-29 15:53:00,
2013-10-29 11:08:00,48.4,45.0,30.21,SE,138,1.0,5.0,89,0.09,,,0.09,weatherlink.com 1.10,2013-10-29 16:08:00,
2013-10-29 11:23:00,48.7,46.0,30.20,ESE,103,2.0,5.0,91,0.10,,,0.11,weatherlink.com 1.10,2013-10-29 16:23:00,
2013-10-29 11:38:00,49.7,48.0,30.19,SE,132,2.0,8.0,93,0.09,,,0.12,weatherlink.com 1.10,2013-10-29 16:38:00,
2013-10-29 11:53:00,50.2,48.0,30.18,ESE,117,2.0,6.0,93,0.07,,,0.13,weatherlink.com 1.10,2013-10-29 16:53:00,
2013-10-29 12:08:00,50.8,49.0,30.16,SE,129,5.0,8.0,93,0.04,,,0.00,weatherlink.com 1.10,2013-10-29 17:08:00,
2013-10-29 12:23:00,51.3,49.0,30.15,SE,139,5.0,9.0,93,0.02,,,0.00,weatherlink.com 1.10,2013-10-29 17:23:00,
2013-10-29 12:38:00,51.6,50.0,30.13,WSW,250,4.0,11.0,93,0.01,,,0.00,weatherlink.com 1.10,2013-10-29 17:38:00,
2013-10-29 12:53:00,51.8,50.0,30.13,East,96,4.0,12.0,93,0.00,,,0.00,weatherlink.com 1.10,2013-10-29 17:53:00,
2013-10-29 13:08:00,52.0,50.0,30.13,South,172,2.0,9.0,94,0.00,,,0.00,weatherlink.com 1.10,2013-10-29 18:08:00,
2013-10-29 13:23:00,52.7,51.0,30.12,SE,127,0.0,7.0,94,0.00,,,0.00,weatherlink.com 1.10,2013-10-29 18:23:00,
2013-10-29 13:38:00,53.6,52.0,30.11,East,88,3.0,7.0,94,0.00,,,0.00,weatherlink.com 1.10,2013-10-29 18:38:00,
2013-10-29 13:53:00,54.4,53.0,30.10,SE,134,3.0,8.0,94,0.00,,,0.00,weatherlink.com 1.10,2013-10-29 18:53:00,
2013-10-29 14:08:00,55.0,53.0,30.09,ESE,107,3.0,7.0,94,0.00,,,0.00,weatherlink.com 1.10,2013-10-29 19:08:00,
2013-10-29 14:23:00,55.5,54.0,30.07,East,101,4.0,8.0,94,0.00,,,0.00,weatherlink.com 1.10,2013-10-29 19:23:00,
2013-10-29 14:39:00,56.5,55.0,30.07,SSE,160,1.0,7.0,93,0.00,,,0.00,weatherlink.com 1.10,2013-10-29 19:39:00,
2013-10-29 14:54:00,56.8,55.0,30.06,East,82,6.0,10.0,92,0.00,,,0.00,weatherlink.com 1.10,2013-10-29 19:54:00,
2013-10-29 15:09:00,56.7,54.0,30.07,ESE,118,0.0,8.0,91,0.00,,,0.00,weatherlink.com 1.10,2013-10-29 20:09:00,
2013-10-29 15:24:00,56.5,54.0,30.07,WSW,237,2.0,7.0,92,0.00,,,0.00,weatherlink.com 1.10,2013-10-29 20:24:00,
2013-10-29 15:39:00,56.4,54.0,30.06,ESE,115,8.0,10.0,92,0.00,,,0.00,weatherlink.com 1.10,2013-10-29 20:39:00,
2013-10-29 15:54:00,56.3,54.0,30.05,ENE,74,2.0,10.0,93,0.00,,,0.00,weatherlink.com 1.10,2013-10-29 20:54:00,
2013-10-29 16:09:00,56.3,54.0,30.05,SSE,165,2.0,6.0,93,0.00,,,0.00,weatherlink.com 1.10,2013-10-29 21:09:00,
2013-10-29 16:24:00,56.4,55.0,30.05,ESE,108,1.0,5.0,93,0.00,,,0.00,weatherlink.com 1.10,2013-10-29 21:24:00,
2013-10-29 16:39:00,56.3,54.0,30.05,NE,53,4.0,7.0,93,0.00,,,0.00,weatherlink.com 1.10,2013-10-29 21:39:00,
2013-10-29 16:54:00,56.0,54.0,30.05,East,85,2.0,4.0,94,0.00,,,0.00,weatherlink.com 1.10,2013-10-29 21:54:00,
2013-10-29 17:09:00,55.7,54.0,30.05,East,92,2.0,6.0,95,0.01,,,0.01,weatherlink.com 1.10,2013-10-29 22:09:00,
2013-10-29 17:24:00,55.6,55.0,30.05,East,96,2.0,6.0,96,0.01,,,0.01,weatherlink.com 1.10,2013-10-29 22:24:00,
2013-10-29 17:39:00,55.7,55.0,30.04,ESE,120,6.0,7.0,97,0.02,,,0.02,weatherlink.com 1.10,2013-10-29 22:39:00,
2013-10-29 17:54:00,55.8,55.0,30.05,East,86,1.0,4.0,97,0.02,,,0.02,weatherlink.com 1.10,2013-10-29 22:54:00,
2013-10-29 18:09:00,55.9,55.0,30.05,East,98,2.0,4.0,97,0.02,,,0.03,weatherlink.com 1.10,2013-10-29 23:09:00,
2013-10-29 18:24:00,55.9,55.0,30.05,East,99,1.0,5.0,97,0.02,,,0.03,weatherlink.com 1.10,2013-10-29 23:24:00,
2013-10-29 18:39:00,55.8,55.0,30.05,SE,134,2.0,6.0,97,0.01,,,0.03,weatherlink.com 1.10,2013-10-29 23:39:00,
2013-10-29 18:54:00,55.8,55.0,30.05,NE,51,4.0,6.0,97,0.01,,,0.03,weatherlink.com 1.10,2013-10-29 23:54:00,
2013-10-29 19:09:00,55.8,55.0,30.05,East,96,3.0,8.0,97,0.01,,,0.04,weatherlink.com 1.10,2013-10-30 00:09:00,
2013-10-29 19:24:00,55.8,55.0,30.05,SE,125,4.0,6.0,98,0.01,,,0.04,weatherlink.com 1.10,2013-10-30 00:24:00,
2013-10-29 19:39:00,55.8,55.0,30.05,SE,136,2.0,5.0,98,0.01,,,0.04,weatherlink.com 1.10,2013-10-30 00:39:00,
2013-10-29 19:54:00,55.8,55.0,30.05,SE,141,3.0,6.0,98,0.01,,,0.04,weatherlink.com 1.10,2013-10-30 00:54:00,
2013-10-29 20:09:00,55.8,55.0,30.05,East,97,4.0,7.0,98,0.00,,,0.04,weatherlink.com 1.10,2013-10-30 01:09:00,
2013-10-29 20:24:00,55.8,55.0,30.05,ESE,115,4.0,6.0,98,0.00,,,0.04,weatherlink.com 1.10,2013-10-30 01:24:00,
2013-10-29 20:39:00,55.8,55.0,30.05,SE,129,1.0,5.0,98,0.00,,,0.04,weatherlink.com 1.10,2013-10-30 01:39:00,
2013-10-29 20:54:00,55.8,55.0,30.05,ESE,116,3.0,8.0,98,0.03,,,0.07,weatherlink.com 1.10,2013-10-30 01:54:00,
2013-10-29 21:09:00,55.8,55.0,30.05,ESE,113,2.0,6.0,98,0.05,,,0.09,weatherlink.com 1.10,2013-10-30 02:09:00,
2013-10-29 21:39:00,55.9,55.0,30.05,East,99,1.0,5.0,98,0.05,,,0.09,weatherlink.com 1.10,2013-10-30 02:39:00,
2013-10-29 21:54:00,55.9,55.0,30.06,East,88,2.0,4.0,98,0.03,,,0.10,weatherlink.com 1.10,2013-10-30 02:54:00,
2013-10-29 22:09:00,56.1,56.0,30.06,East,96,4.0,6.0,98,0.02,,,0.11,weatherlink.com 1.10,2013-10-30 03:09:00,
2013-10-29 22:24:00,56.0,56.0,30.05,SE,136,6.0,6.0,98,0.03,,,0.12,weatherlink.com 1.10,2013-10-30 03:24:00,
2013-10-29 22:39:00,56.0,56.0,30.04,ESE,105,0.0,5.0,98,0.03,,,0.12,weatherlink.com 1.10,2013-10-30 03:39:00,
2013-10-29 22:54:00,56.0,56.0,30.04,East,84,3.0,6.0,99,0.02,,,0.12,weatherlink.com 1.10,2013-10-30 03:54:00,
2013-10-29 23:09:00,56.1,56.0,30.04,SE,136,1.0,6.0,99,0.01,,,0.12,weatherlink.com 1.10,2013-10-30 04:09:00,
2013-10-29 23:24:00,56.1,56.0,30.04,ESE,108,1.0,4.0,99,0.00,,,0.12,weatherlink.com 1.10,2013-10-30 04:24:00,
2013-10-29 23:39:00,56.3,56.0,30.04,East,96,2.0,4.0,99,0.00,,,0.12,weatherlink.com 1.10,2013-10-30 04:39:00,
2013-10-29 23:54:00,56.5,56.0,30.03,SE,143,1.0,5.0,99,0.00,,,0.12,weatherlink.com 1.10,2013-10-30 04:54:00,